createdAt,value
2017-09-12T00:00:58.306Z,0
2017-09-12T00:01:59.721Z,0
2017-09-12T00:03:01.139Z,0
2017-09-12T00:04:02.556Z,0
2017-09-12T00:05:03.968Z,0
2017-09-12T00:06:05.402Z,0
2017-09-12T00:07:06.825Z,0
2017-09-12T00:08:08.241Z,0
2017-09-12T00:09:09.669Z,0
2017-09-12T00:10:11.083Z,0
2017-09-12T00:11:12.546Z,0
2017-09-12T00:12:14.049Z,0
2017-09-12T00:13:15.463Z,0
2017-09-12T00:14:16.884Z,0
2017-09-12T00:15:18.313Z,0
2017-09-12T00:16:19.738Z,0
2017-09-12T00:17:21.158Z,0
2017-09-12T00:18:22.581Z,0
2017-09-12T00:19:23.999Z,0
2017-09-12T00:20:25.414Z,0
2017-09-12T00:21:26.829Z,0
2017-09-12T00:22:28.247Z,0
2017-09-12T00:23:29.690Z,0
2017-09-12T00:24:31.080Z,0
2017-09-12T00:25:32.498Z,0
2017-09-12T00:26:33.914Z,0
2017-09-12T00:27:35.337Z,0
2017-09-12T00:28:36.753Z,0
2017-09-12T00:29:38.172Z,0
2017-09-12T00:30:40.254Z,0
2017-09-12T00:31:41.681Z,0
2017-09-12T00:32:43.110Z,0
2017-09-12T00:33:44.529Z,0
2017-09-12T00:34:45.939Z,0
2017-09-12T00:35:47.362Z,0
2017-09-12T00:36:48.779Z,0
2017-09-12T00:37:50.238Z,0
2017-09-12T00:38:51.659Z,0
2017-09-12T00:39:53.081Z,0
2017-09-12T00:40:54.506Z,0
2017-09-12T00:41:55.919Z,0
2017-09-12T00:42:57.337Z,0
2017-09-12T00:43:58.856Z,0
2017-09-12T00:45:00.300Z,0
2017-09-12T00:46:01.720Z,0
2017-09-12T00:47:03.138Z,0
2017-09-12T00:48:04.568Z,0
2017-09-12T00:49:05.983Z,0
2017-09-12T00:50:07.405Z,0
2017-09-12T00:51:08.837Z,0
2017-09-12T00:52:10.264Z,0
2017-09-12T00:53:11.693Z,0
2017-09-12T00:54:13.111Z,0
2017-09-12T00:55:14.534Z,0
2017-09-12T00:56:15.949Z,0
2017-09-12T00:57:17.367Z,0
2017-09-12T00:58:18.787Z,0
2017-09-12T00:59:20.206Z,0
2017-09-12T01:00:21.623Z,0
2017-09-12T01:01:23.059Z,0
2017-09-12T01:02:24.475Z,0
2017-09-12T01:03:25.893Z,0
2017-09-12T01:04:27.315Z,0
2017-09-12T01:05:28.784Z,0
2017-09-12T01:06:30.201Z,0
2017-09-12T01:07:31.620Z,0
2017-09-12T01:08:33.038Z,0
2017-09-12T01:09:34.456Z,0
2017-09-12T01:10:35.869Z,0
2017-09-12T01:11:37.287Z,0
2017-09-12T01:12:38.709Z,0
2017-09-12T01:13:40.125Z,0
2017-09-12T01:14:41.536Z,0
2017-09-12T01:15:42.954Z,0
2017-09-12T01:16:44.370Z,0
2017-09-12T01:17:45.784Z,0
2017-09-12T01:18:47.198Z,0
2017-09-12T01:19:48.625Z,0
2017-09-12T01:20:50.044Z,0
2017-09-12T01:21:51.453Z,0
2017-09-12T01:22:52.886Z,0
2017-09-12T01:23:54.311Z,0
2017-09-12T01:24:55.728Z,0
2017-09-12T01:25:57.147Z,0
2017-09-12T01:26:58.574Z,0
2017-09-12T01:28:00.567Z,0
2017-09-12T01:29:01.987Z,0
2017-09-12T01:30:03.405Z,0
2017-09-12T01:31:04.827Z,0
2017-09-12T01:32:06.243Z,0
2017-09-12T01:33:07.668Z,0
2017-09-12T01:34:09.095Z,0
2017-09-12T01:35:10.510Z,0
2017-09-12T01:36:11.927Z,0
2017-09-12T01:37:13.358Z,0
2017-09-12T01:38:14.772Z,0
2017-09-12T01:39:16.190Z,0
2017-09-12T01:40:17.605Z,0
2017-09-12T01:41:19.030Z,0
2017-09-12T01:42:20.448Z,0
2017-09-12T01:43:21.867Z,0
2017-09-12T01:44:23.287Z,0
2017-09-12T01:45:24.707Z,0
2017-09-12T01:46:26.154Z,0
2017-09-12T01:47:27.577Z,0
2017-09-12T01:48:29.002Z,0
2017-09-12T01:49:30.420Z,0
2017-09-12T01:50:31.837Z,0
2017-09-12T01:51:33.279Z,0
2017-09-12T01:52:34.696Z,0
2017-09-12T01:53:36.114Z,0
2017-09-12T01:54:37.528Z,0
2017-09-12T01:55:38.943Z,0
2017-09-12T01:56:40.430Z,0
2017-09-12T01:57:41.843Z,0
2017-09-12T01:58:43.261Z,0
2017-09-12T01:59:44.710Z,0
2017-09-12T02:00:46.128Z,0
2017-09-12T02:01:47.545Z,0
2017-09-12T02:02:49.777Z,0
2017-09-12T02:03:51.197Z,0
2017-09-12T02:04:52.613Z,0
2017-09-12T02:05:54.028Z,0
2017-09-12T02:06:55.454Z,0
2017-09-12T02:07:56.871Z,0
2017-09-12T02:08:58.288Z,0
2017-09-12T02:09:59.714Z,0
2017-09-12T02:11:01.126Z,0
2017-09-12T02:12:02.540Z,0
2017-09-12T02:13:03.958Z,0
2017-09-12T02:14:05.382Z,0
2017-09-12T02:15:06.800Z,0
2017-09-12T02:16:08.829Z,0
2017-09-12T02:17:10.245Z,0
2017-09-12T02:18:11.685Z,0
2017-09-12T02:19:13.107Z,0
2017-09-12T02:20:15.161Z,0
2017-09-12T02:21:16.584Z,0
2017-09-12T02:22:18.001Z,0
2017-09-12T02:23:19.419Z,0
2017-09-12T02:24:20.837Z,0
2017-09-12T02:25:22.253Z,0
2017-09-12T02:26:23.678Z,0
2017-09-12T02:27:25.101Z,0
2017-09-12T02:28:26.518Z,0
2017-09-12T02:29:27.932Z,0
2017-09-12T02:30:29.349Z,0
2017-09-12T02:31:30.769Z,0
2017-09-12T02:32:32.178Z,0
2017-09-12T02:33:33.601Z,0
2017-09-12T02:34:35.012Z,0
2017-09-12T02:35:36.430Z,0
2017-09-12T02:36:37.848Z,0
2017-09-12T02:37:39.265Z,0
2017-09-12T02:38:40.684Z,0
2017-09-12T02:39:42.102Z,0
2017-09-12T02:40:43.521Z,0
2017-09-12T02:41:44.938Z,0
2017-09-12T02:42:46.355Z,16
2017-09-12T02:43:47.789Z,16
2017-09-12T02:44:49.212Z,16
2017-09-12T02:45:50.627Z,16
2017-09-12T02:46:52.123Z,16
2017-09-12T02:47:55.733Z,16
2017-09-12T02:48:57.152Z,12
2017-09-12T02:49:59.444Z,12
2017-09-12T02:51:00.870Z,12
2017-09-12T02:52:32.580Z,12
2017-09-12T02:54:07.580Z,12
2017-09-12T02:55:41.080Z,12
2017-09-12T02:56:45.961Z,12
2017-09-12T02:57:47.380Z,12
2017-09-12T02:58:48.806Z,12
2017-09-12T02:59:50.223Z,16
2017-09-12T03:00:51.654Z,16
2017-09-12T03:01:53.073Z,16
2017-09-12T03:02:54.493Z,16
2017-09-12T03:03:55.916Z,16
2017-09-12T03:04:57.337Z,12
2017-09-12T03:05:58.758Z,12
2017-09-12T03:07:00.190Z,12
2017-09-12T03:08:01.608Z,12
2017-09-12T03:09:03.026Z,12
2017-09-12T03:10:04.445Z,12
2017-09-12T03:11:05.868Z,12
2017-09-12T03:12:07.282Z,12
2017-09-12T03:13:08.698Z,12
2017-09-12T03:14:10.121Z,12
2017-09-12T03:15:11.544Z,12
2017-09-12T03:16:12.965Z,12
2017-09-12T03:17:14.383Z,12
2017-09-12T03:18:15.799Z,12
2017-09-12T03:19:17.217Z,12
2017-09-12T03:20:18.636Z,12
2017-09-12T03:21:20.058Z,12
2017-09-12T03:22:21.471Z,12
2017-09-12T03:23:22.891Z,12
2017-09-12T03:24:24.310Z,12
2017-09-12T03:25:25.730Z,12
2017-09-12T03:26:27.149Z,12
2017-09-12T03:27:28.567Z,12
2017-09-12T03:28:29.989Z,12
2017-09-12T03:29:31.409Z,12
2017-09-12T03:30:32.835Z,12
2017-09-12T03:31:34.254Z,12
2017-09-12T03:32:35.674Z,12
2017-09-12T03:33:37.090Z,12
2017-09-12T03:34:38.584Z,12
2017-09-12T03:35:40.015Z,0
2017-09-12T03:36:41.434Z,12
2017-09-12T03:37:42.850Z,12
2017-09-12T03:38:44.391Z,12
2017-09-12T03:39:45.813Z,12
2017-09-12T03:40:47.228Z,12
2017-09-12T03:41:48.647Z,12
2017-09-12T03:42:50.168Z,12
2017-09-12T03:43:51.587Z,12
2017-09-12T03:44:53.000Z,12
2017-09-12T03:45:54.425Z,12
2017-09-12T03:46:55.851Z,12
2017-09-12T03:47:57.268Z,12
2017-09-12T03:48:58.688Z,12
2017-09-12T03:50:00.142Z,12
2017-09-12T03:51:01.561Z,12
2017-09-12T03:52:02.987Z,12
2017-09-12T03:53:04.396Z,12
2017-09-12T03:54:05.812Z,12
2017-09-12T03:55:07.238Z,0
2017-09-12T03:56:08.650Z,0
2017-09-12T03:57:10.068Z,0
2017-09-12T03:58:11.483Z,0
2017-09-12T03:59:12.907Z,0
2017-09-12T04:00:14.330Z,0
2017-09-12T04:01:15.748Z,0
2017-09-12T04:02:17.167Z,0
2017-09-12T04:03:18.589Z,0
2017-09-12T04:04:20.008Z,0
2017-09-12T04:05:21.426Z,0
2017-09-12T04:06:22.836Z,0
2017-09-12T04:07:24.249Z,0
2017-09-12T04:08:25.678Z,0
2017-09-12T04:09:27.096Z,0
2017-09-12T04:10:28.517Z,0
2017-09-12T04:11:29.937Z,0
2017-09-12T04:12:31.355Z,0
2017-09-12T04:13:32.775Z,0
2017-09-12T04:14:34.190Z,0
2017-09-12T04:15:35.605Z,0
2017-09-12T04:16:37.026Z,0
2017-09-12T04:17:38.438Z,0
2017-09-12T04:18:39.857Z,0
2017-09-12T04:19:41.267Z,0
2017-09-12T04:20:42.686Z,0
2017-09-12T04:21:44.111Z,0
2017-09-12T04:22:45.531Z,0
2017-09-12T04:23:46.948Z,0
2017-09-12T04:24:48.402Z,0
2017-09-12T04:25:49.820Z,0
2017-09-12T04:26:51.244Z,0
2017-09-12T04:27:52.664Z,0
2017-09-12T04:28:55.363Z,0
2017-09-12T04:29:56.762Z,0
2017-09-12T04:30:58.190Z,0
2017-09-12T04:31:59.603Z,0
2017-09-12T04:33:01.019Z,0
2017-09-12T04:34:02.442Z,0
2017-09-12T04:35:03.864Z,0
2017-09-12T04:36:05.271Z,0
2017-09-12T04:37:06.700Z,0
2017-09-12T04:38:08.117Z,0
2017-09-12T04:39:09.539Z,0
2017-09-12T04:40:10.961Z,0
2017-09-12T04:41:12.382Z,0
2017-09-12T04:42:13.806Z,0
2017-09-12T04:43:15.218Z,0
2017-09-12T04:44:16.645Z,4
2017-09-12T04:45:18.066Z,0
2017-09-12T04:46:19.488Z,0
2017-09-12T04:47:20.907Z,4
2017-09-12T04:48:22.326Z,4
2017-09-12T04:49:23.748Z,4
2017-09-12T04:50:25.166Z,4
2017-09-12T04:51:26.595Z,0
2017-09-12T04:52:28.009Z,4
2017-09-12T04:53:29.421Z,4
2017-09-12T04:54:30.839Z,4
2017-09-12T04:55:32.264Z,0
2017-09-12T04:56:33.682Z,4
2017-09-12T04:57:35.105Z,4
2017-09-12T04:58:36.531Z,8
2017-09-12T04:59:37.957Z,8
2017-09-12T05:00:39.378Z,8
2017-09-12T05:01:40.794Z,8
2017-09-12T05:02:42.213Z,8
2017-09-12T05:03:43.627Z,12
2017-09-12T05:04:45.045Z,8
2017-09-12T05:05:46.465Z,8
2017-09-12T05:06:47.885Z,8
2017-09-12T05:07:49.315Z,12
2017-09-12T05:08:50.729Z,12
2017-09-12T05:09:52.154Z,16
2017-09-12T05:10:53.566Z,16
2017-09-12T05:11:54.985Z,20
2017-09-12T05:12:56.406Z,24
2017-09-12T05:13:58.318Z,28
2017-09-12T05:14:59.743Z,28
2017-09-12T05:16:01.172Z,28
2017-09-12T05:17:02.589Z,32
2017-09-12T05:18:04.006Z,32
2017-09-12T05:19:05.422Z,40
2017-09-12T05:20:06.841Z,48
2017-09-12T05:21:08.252Z,40
2017-09-12T05:22:09.673Z,40
2017-09-12T05:23:11.086Z,48
2017-09-12T05:24:13.435Z,52
2017-09-12T05:25:14.866Z,64
2017-09-12T05:26:16.272Z,84
2017-09-12T05:27:17.694Z,88
2017-09-12T05:28:19.113Z,96
2017-09-12T05:29:20.531Z,104
2017-09-12T05:30:21.946Z,100
2017-09-12T05:31:23.370Z,96
2017-09-12T05:32:24.781Z,96
2017-09-12T05:33:26.207Z,96
2017-09-12T05:34:27.629Z,96
2017-09-12T05:35:29.049Z,96
2017-09-12T05:36:30.469Z,100
2017-09-12T05:37:31.887Z,120
2017-09-12T05:38:33.298Z,108
2017-09-12T05:39:34.716Z,124
2017-09-12T05:40:36.207Z,116
2017-09-12T05:41:37.631Z,144
2017-09-12T05:42:39.055Z,148
2017-09-12T05:43:40.486Z,152
2017-09-12T05:44:41.907Z,152
2017-09-12T05:45:43.322Z,152
2017-09-12T05:46:44.750Z,144
2017-09-12T05:47:46.196Z,124
2017-09-12T05:48:47.617Z,112
2017-09-12T05:49:49.040Z,108
2017-09-12T05:50:50.461Z,108
2017-09-12T05:51:51.877Z,120
2017-09-12T05:52:53.300Z,136
2017-09-12T05:53:54.719Z,172
2017-09-12T05:54:56.139Z,184
2017-09-12T05:55:57.563Z,192
2017-09-12T05:56:58.983Z,196
2017-09-12T05:58:00.397Z,192
2017-09-12T05:59:01.826Z,188
2017-09-12T06:00:03.254Z,208
2017-09-12T06:01:04.679Z,212
2017-09-12T06:02:06.102Z,228
2017-09-12T06:03:07.516Z,232
2017-09-12T06:04:08.945Z,248
2017-09-12T06:05:10.365Z,264
2017-09-12T06:06:11.795Z,280
2017-09-12T06:07:13.214Z,272
2017-09-12T06:08:14.638Z,264
2017-09-12T06:09:16.062Z,252
2017-09-12T06:10:17.490Z,240
2017-09-12T06:11:18.908Z,248
2017-09-12T06:12:20.336Z,284
2017-09-12T06:13:21.752Z,304
2017-09-12T06:14:23.185Z,320
2017-09-12T06:15:24.611Z,324
2017-09-12T06:16:26.032Z,336
2017-09-12T06:17:27.455Z,328
2017-09-12T06:18:28.883Z,344
2017-09-12T06:19:30.306Z,324
2017-09-12T06:20:31.720Z,340
2017-09-12T06:21:33.142Z,336
2017-09-12T06:22:34.564Z,320
2017-09-12T06:23:35.994Z,304
2017-09-12T06:24:37.416Z,292
2017-09-12T06:25:38.836Z,296
2017-09-12T06:26:41.095Z,256
2017-09-12T06:27:42.617Z,216
2017-09-12T06:28:44.044Z,208
2017-09-12T06:29:45.465Z,168
2017-09-12T06:30:46.916Z,152
2017-09-12T06:31:48.351Z,164
2017-09-12T06:32:49.771Z,200
2017-09-12T06:33:51.193Z,160
2017-09-12T06:34:52.657Z,160
2017-09-12T06:35:54.077Z,156
2017-09-12T06:36:55.514Z,120
2017-09-12T06:37:56.926Z,140
2017-09-12T06:38:59.326Z,112
2017-09-12T06:40:00.745Z,140
2017-09-12T06:41:02.168Z,184
2017-09-12T06:42:03.587Z,236
2017-09-12T06:43:05.012Z,256
2017-09-12T06:44:06.432Z,292
2017-09-12T06:45:07.849Z,308
2017-09-12T06:46:09.755Z,376
2017-09-12T06:47:11.185Z,368
2017-09-12T06:48:12.602Z,428
2017-09-12T06:49:14.025Z,424
2017-09-12T06:50:15.439Z,448
2017-09-12T06:51:16.862Z,456
2017-09-12T06:52:18.284Z,572
2017-09-12T06:53:19.707Z,532
2017-09-12T06:54:21.123Z,644
2017-09-12T06:55:22.616Z,712
2017-09-12T06:56:24.724Z,688
2017-09-12T06:57:26.146Z,956
2017-09-12T06:58:27.563Z,944
2017-09-12T06:59:28.993Z,1048
2017-09-12T07:00:30.422Z,1116
2017-09-12T07:01:31.837Z,908
2017-09-12T07:02:33.259Z,856
2017-09-12T07:03:34.703Z,1088
2017-09-12T07:04:36.124Z,1244
2017-09-12T07:05:37.545Z,1296
2017-09-12T07:06:38.966Z,1204
2017-09-12T07:07:40.393Z,1292
2017-09-12T07:08:41.813Z,1068
2017-09-12T07:09:43.236Z,944
2017-09-12T07:10:44.652Z,896
2017-09-12T07:11:46.069Z,880
2017-09-12T07:12:47.492Z,712
2017-09-12T07:13:48.913Z,696
2017-09-12T07:14:50.331Z,804
2017-09-12T07:15:51.754Z,696
2017-09-12T07:16:53.178Z,588
2017-09-12T07:17:54.608Z,536
2017-09-12T07:18:56.027Z,512
2017-09-12T07:19:57.453Z,468
2017-09-12T07:20:58.881Z,428
2017-09-12T07:22:00.298Z,480
2017-09-12T07:23:01.716Z,476
2017-09-12T07:24:03.141Z,520
2017-09-12T07:25:04.552Z,548
2017-09-12T07:26:05.972Z,672
2017-09-12T07:27:07.391Z,640
2017-09-12T07:28:08.845Z,484
2017-09-12T07:29:10.274Z,480
2017-09-12T07:30:11.700Z,512
2017-09-12T07:31:13.125Z,608
2017-09-12T07:32:14.600Z,740
2017-09-12T07:33:16.017Z,772
2017-09-12T07:34:17.453Z,768
2017-09-12T07:35:18.959Z,712
2017-09-12T07:36:20.407Z,912
2017-09-12T07:37:21.820Z,748
2017-09-12T07:38:23.240Z,680
2017-09-12T07:39:24.661Z,712
2017-09-12T07:40:26.133Z,836
2017-09-12T07:41:27.561Z,892
2017-09-12T07:42:28.986Z,916
2017-09-12T07:43:30.492Z,868
2017-09-12T07:44:31.924Z,792
2017-09-12T07:45:33.342Z,632
2017-09-12T07:46:34.853Z,712
2017-09-12T07:47:36.277Z,672
2017-09-12T07:48:37.701Z,768
2017-09-12T07:49:39.132Z,896
2017-09-12T07:50:40.555Z,1164
2017-09-12T07:51:41.983Z,1108
2017-09-12T07:52:43.410Z,956
2017-09-12T07:53:44.851Z,968
2017-09-12T07:54:46.282Z,1068
2017-09-12T07:55:47.704Z,876
2017-09-12T07:56:49.125Z,1060
2017-09-12T07:57:50.551Z,1024
2017-09-12T07:58:51.982Z,780
2017-09-12T07:59:53.402Z,796
2017-09-12T08:00:54.817Z,608
2017-09-12T08:01:56.239Z,784
2017-09-12T08:02:57.664Z,692
2017-09-12T08:03:59.090Z,796
2017-09-12T08:05:00.508Z,880
2017-09-12T08:06:01.928Z,844
2017-09-12T08:07:03.353Z,1056
2017-09-12T08:08:04.782Z,1032
2017-09-12T08:09:06.212Z,844
2017-09-12T08:10:07.623Z,792
2017-09-12T08:11:09.056Z,1176
2017-09-12T08:12:10.471Z,1296
2017-09-12T08:13:11.896Z,1204
2017-09-12T08:14:13.308Z,892
2017-09-12T08:15:14.725Z,1236
2017-09-12T08:16:16.156Z,1384
2017-09-12T08:17:17.730Z,1220
2017-09-12T08:18:19.149Z,1112
2017-09-12T08:19:20.572Z,1120
2017-09-12T08:20:21.992Z,1328
2017-09-12T08:21:23.416Z,940
2017-09-12T08:22:24.838Z,960
2017-09-12T08:23:26.286Z,792
2017-09-12T08:24:27.678Z,772
2017-09-12T08:25:29.097Z,652
2017-09-12T08:26:30.517Z,508
2017-09-12T08:27:31.945Z,700
2017-09-12T08:28:33.360Z,748
2017-09-12T08:29:34.796Z,700
2017-09-12T08:30:36.220Z,676
2017-09-12T08:31:37.640Z,664
2017-09-12T08:32:39.064Z,724
2017-09-12T08:33:40.485Z,864
2017-09-12T08:34:41.913Z,1336
2017-09-12T08:35:43.339Z,1536
2017-09-12T08:36:44.761Z,1240
2017-09-12T08:37:46.183Z,1472
2017-09-12T08:38:47.602Z,1268
2017-09-12T08:39:49.035Z,1196
2017-09-12T08:40:50.472Z,1396
2017-09-12T08:41:51.897Z,1640
2017-09-12T08:42:53.327Z,1392
2017-09-12T08:43:54.747Z,1084
2017-09-12T08:44:56.171Z,956
2017-09-12T08:45:57.593Z,1268
2017-09-12T08:46:59.017Z,1236
2017-09-12T08:48:00.439Z,1252
2017-09-12T08:49:01.865Z,1376
2017-09-12T08:50:03.294Z,1412
2017-09-12T08:51:04.717Z,1248
2017-09-12T08:52:06.197Z,856
2017-09-12T08:53:07.618Z,912
2017-09-12T08:54:09.050Z,1072
2017-09-12T08:55:10.482Z,1020
2017-09-12T08:56:11.898Z,1248
2017-09-12T08:57:13.407Z,1580
2017-09-12T08:58:14.834Z,1148
2017-09-12T08:59:16.266Z,1480
2017-09-12T09:00:17.688Z,1200
2017-09-12T09:01:19.113Z,1000
2017-09-12T09:02:20.546Z,832
2017-09-12T09:03:21.969Z,616
2017-09-12T09:04:23.390Z,692
2017-09-12T09:05:24.814Z,1088
2017-09-12T09:06:26.242Z,864
2017-09-12T09:07:27.671Z,1276
2017-09-12T09:08:29.082Z,1636
2017-09-12T09:09:30.510Z,948
2017-09-12T09:10:31.926Z,820
2017-09-12T09:11:33.349Z,1076
2017-09-12T09:12:34.768Z,1044
2017-09-12T09:13:36.189Z,816
2017-09-12T09:14:37.635Z,1628
2017-09-12T09:15:39.059Z,1584
2017-09-12T09:16:40.492Z,2152
2017-09-12T09:17:41.916Z,1816
2017-09-12T09:18:43.332Z,1316
2017-09-12T09:19:44.751Z,1620
2017-09-12T09:20:46.169Z,1272
2017-09-12T09:21:47.590Z,1868
2017-09-12T09:22:49.003Z,1168
2017-09-12T09:23:50.430Z,1056
2017-09-12T09:24:51.853Z,1024
2017-09-12T09:25:53.842Z,1032
2017-09-12T09:26:55.268Z,1292
2017-09-12T09:27:56.694Z,1256
2017-09-12T09:28:58.235Z,1680
2017-09-12T09:29:59.662Z,2252
2017-09-12T09:31:01.088Z,1720
2017-09-12T09:32:02.515Z,856
2017-09-12T09:33:03.937Z,1400
2017-09-12T09:34:05.361Z,1760
2017-09-12T09:35:06.782Z,1380
2017-09-12T09:36:08.207Z,1820
2017-09-12T09:37:09.628Z,1304
2017-09-12T09:38:11.059Z,1208
2017-09-12T09:39:12.484Z,988
2017-09-12T09:40:13.911Z,1204
2017-09-12T09:41:15.337Z,1036
2017-09-12T09:42:16.759Z,1036
2017-09-12T09:43:18.181Z,960
2017-09-12T09:44:19.599Z,1208
2017-09-12T09:45:21.019Z,1120
2017-09-12T09:46:22.449Z,1208
2017-09-12T09:47:23.875Z,1152
2017-09-12T09:48:25.292Z,1056
2017-09-12T09:49:26.729Z,1532
2017-09-12T09:50:28.156Z,1512
2017-09-12T09:51:29.588Z,1564
2017-09-12T09:52:31.010Z,1412
2017-09-12T09:53:32.476Z,1588
2017-09-12T09:54:33.907Z,1624
2017-09-12T09:55:35.334Z,1648
2017-09-12T09:56:36.774Z,1768
2017-09-12T09:57:38.195Z,1952
2017-09-12T09:58:39.625Z,2164
2017-09-12T09:59:41.046Z,1976
2017-09-12T10:00:42.469Z,1896
2017-09-12T10:01:43.893Z,1908
2017-09-12T10:02:45.320Z,1852
2017-09-12T10:03:46.743Z,1904
2017-09-12T10:04:48.174Z,1888
2017-09-12T10:05:49.601Z,1588
2017-09-12T10:06:51.035Z,1868
2017-09-12T10:07:52.457Z,1556
2017-09-12T10:08:53.883Z,1576
2017-09-12T10:09:55.321Z,1480
2017-09-12T10:10:57.678Z,1452
2017-09-12T10:11:59.098Z,1560
2017-09-12T10:13:00.527Z,1760
2017-09-12T10:14:01.949Z,2096
2017-09-12T10:15:03.386Z,2088
2017-09-12T10:16:04.813Z,2020
2017-09-12T10:17:06.237Z,1824
2017-09-12T10:18:07.660Z,1700
2017-09-12T10:19:09.093Z,1620
2017-09-12T10:20:10.515Z,1588
2017-09-12T10:21:11.942Z,1608
2017-09-12T10:22:13.363Z,1548
2017-09-12T10:23:14.793Z,1560
2017-09-12T10:24:16.280Z,1560
2017-09-12T10:25:17.712Z,1572
2017-09-12T10:26:19.140Z,1576
2017-09-12T10:27:20.580Z,1608
2017-09-12T10:28:22.006Z,1644
2017-09-12T10:29:23.432Z,1656
2017-09-12T10:30:24.909Z,1748
2017-09-12T10:31:26.331Z,1840
2017-09-12T10:32:27.758Z,1884
2017-09-12T10:33:29.262Z,2460
2017-09-12T10:34:30.686Z,2388
2017-09-12T10:35:32.118Z,2532
2017-09-12T10:36:33.546Z,2364
2017-09-12T10:37:34.972Z,2356
2017-09-12T10:38:36.405Z,2332
2017-09-12T10:39:37.837Z,2020
2017-09-12T10:40:39.270Z,2560
2017-09-12T10:41:40.784Z,2880
2017-09-12T10:42:42.205Z,2032
2017-09-12T10:43:43.628Z,1856
2017-09-12T10:44:45.047Z,1860
2017-09-12T10:45:47.251Z,1240
2017-09-12T10:46:47.841Z,2012
2017-09-12T10:47:49.267Z,2120
2017-09-12T10:48:50.689Z,2164
2017-09-12T10:49:52.115Z,2300
2017-09-12T10:50:53.538Z,2480
2017-09-12T10:51:54.963Z,1916
2017-09-12T10:52:56.386Z,1056
2017-09-12T10:53:57.809Z,2088
2017-09-12T10:54:59.229Z,2092
2017-09-12T10:56:00.653Z,1008
2017-09-12T10:57:02.076Z,1104
2017-09-12T10:58:03.498Z,2156
2017-09-12T10:59:04.942Z,2212
2017-09-12T11:00:06.371Z,2068
2017-09-12T11:01:07.780Z,2572
2017-09-12T11:02:09.205Z,2628
2017-09-12T11:03:10.632Z,3108
2017-09-12T11:04:12.059Z,2820
2017-09-12T11:05:13.490Z,2000
2017-09-12T11:06:14.923Z,2552
2017-09-12T11:07:16.347Z,3016
2017-09-12T11:08:17.785Z,3284
2017-09-12T11:09:19.214Z,2632
2017-09-12T11:10:20.643Z,2556
2017-09-12T11:11:22.075Z,2792
2017-09-12T11:12:23.499Z,3636
2017-09-12T11:13:24.924Z,2100
2017-09-12T11:14:26.342Z,2724
2017-09-12T11:15:27.783Z,2408
2017-09-12T11:16:29.213Z,2436
2017-09-12T11:17:30.640Z,2328
2017-09-12T11:18:32.063Z,2412
2017-09-12T11:19:33.494Z,2348
2017-09-12T11:20:34.929Z,2188
2017-09-12T11:21:36.397Z,2316
2017-09-12T11:22:37.808Z,1432
2017-09-12T11:23:39.205Z,2188
2017-09-12T11:24:40.637Z,2248
2017-09-12T11:25:42.069Z,2352
2017-09-12T11:26:43.494Z,2236
2017-09-12T11:27:44.917Z,2488
2017-09-12T11:28:46.347Z,2836
2017-09-12T11:29:47.789Z,3224
2017-09-12T11:30:49.217Z,3496
2017-09-12T11:31:50.642Z,3612
2017-09-12T11:32:52.067Z,3540
2017-09-12T11:33:53.493Z,2640
2017-09-12T11:34:54.981Z,1348
2017-09-12T11:35:56.409Z,912
2017-09-12T11:36:57.840Z,944
2017-09-12T11:37:59.272Z,740
2017-09-12T11:39:00.696Z,756
2017-09-12T11:40:02.162Z,788
2017-09-12T11:41:03.585Z,720
2017-09-12T11:42:05.029Z,600
2017-09-12T11:43:06.471Z,536
2017-09-12T11:44:07.900Z,580
2017-09-12T11:45:09.323Z,908
2017-09-12T11:46:10.756Z,1432
2017-09-12T11:47:12.215Z,2024
2017-09-12T11:48:13.643Z,2712
2017-09-12T11:49:15.074Z,2696
2017-09-12T11:50:16.501Z,2524
2017-09-12T11:51:17.929Z,2476
2017-09-12T11:52:19.392Z,2404
2017-09-12T11:53:20.789Z,2344
2017-09-12T11:54:22.220Z,2292
2017-09-12T11:55:23.648Z,2316
2017-09-12T11:56:25.078Z,2296
2017-09-12T11:57:26.502Z,2252
2017-09-12T11:58:27.927Z,2244
2017-09-12T11:59:29.360Z,2248
2017-09-12T12:00:31.652Z,2280
2017-09-12T12:01:33.089Z,2272
2017-09-12T12:02:34.511Z,2436
2017-09-12T12:03:35.939Z,2456
2017-09-12T12:04:37.360Z,2612
2017-09-12T12:05:38.780Z,2472
2017-09-12T12:06:40.213Z,2640
2017-09-12T12:07:41.641Z,2720
2017-09-12T12:08:43.069Z,3072
2017-09-12T12:09:44.488Z,2884
2017-09-12T12:10:45.914Z,2820
2017-09-12T12:11:47.345Z,2768
2017-09-12T12:12:48.773Z,2732
2017-09-12T12:13:50.206Z,2748
2017-09-12T12:14:51.625Z,2928
2017-09-12T12:15:53.052Z,3304
2017-09-12T12:16:54.476Z,3560
2017-09-12T12:17:55.889Z,3328
2017-09-12T12:18:57.327Z,3100
2017-09-12T12:19:58.760Z,3712
2017-09-12T12:21:00.178Z,3880
2017-09-12T12:22:01.606Z,2768
2017-09-12T12:23:03.029Z,3380
2017-09-12T12:24:04.452Z,3364
2017-09-12T12:25:06.618Z,4088
2017-09-12T12:26:08.046Z,4500
2017-09-12T12:27:09.478Z,3004
2017-09-12T12:28:11.429Z,3172
2017-09-12T12:29:12.856Z,2972
2017-09-12T12:30:14.284Z,3924
2017-09-12T12:31:15.712Z,4580
2017-09-12T12:32:17.133Z,5244
2017-09-12T12:33:18.562Z,4596
2017-09-12T12:34:19.991Z,1316
2017-09-12T12:35:21.421Z,3168
2017-09-12T12:36:22.844Z,2200
2017-09-12T12:37:24.269Z,1880
2017-09-12T12:38:25.693Z,2396
2017-09-12T12:39:27.138Z,2984
2017-09-12T12:40:28.580Z,2568
2017-09-12T12:41:30.004Z,3520
2017-09-12T12:42:31.423Z,3096
2017-09-12T12:43:32.866Z,3044
2017-09-12T12:44:34.294Z,3540
2017-09-12T12:45:35.733Z,3256
2017-09-12T12:46:37.158Z,3480
2017-09-12T12:47:38.592Z,4076
2017-09-12T12:48:40.025Z,4112
2017-09-12T12:49:41.461Z,4104
2017-09-12T12:50:42.883Z,4464
2017-09-12T12:51:44.312Z,4112
2017-09-12T12:52:45.739Z,4388
2017-09-12T12:53:47.178Z,3288
2017-09-12T12:54:48.598Z,3380
2017-09-12T12:55:50.033Z,3312
2017-09-12T12:56:51.463Z,3620
2017-09-12T12:57:52.923Z,3428
2017-09-12T12:58:54.346Z,4060
2017-09-12T12:59:55.809Z,5204
2017-09-12T13:00:57.223Z,5884
2017-09-12T13:01:58.646Z,3236
2017-09-12T13:03:00.073Z,3716
2017-09-12T13:04:01.507Z,3784
2017-09-12T13:05:02.936Z,6020
2017-09-12T13:06:04.365Z,3208
2017-09-12T13:07:05.793Z,2524
2017-09-12T13:08:07.233Z,3612
2017-09-12T13:09:08.679Z,4856
2017-09-12T13:10:10.220Z,1888
2017-09-12T13:11:11.647Z,3532
2017-09-12T13:12:13.078Z,3336
2017-09-12T13:13:14.530Z,2956
2017-09-12T13:14:15.955Z,2672
2017-09-12T13:15:17.381Z,2256
2017-09-12T13:16:18.816Z,2324
2017-09-12T13:17:20.903Z,4312
2017-09-12T13:18:22.332Z,9528
2017-09-12T13:19:23.760Z,10180
2017-09-12T13:20:25.196Z,1772
2017-09-12T13:21:26.689Z,1472
2017-09-12T13:22:28.102Z,1688
2017-09-12T13:23:29.526Z,1544
2017-09-12T13:24:30.956Z,1836
2017-09-12T13:25:32.381Z,2424
2017-09-12T13:26:33.821Z,2032
2017-09-12T13:27:35.266Z,1800
2017-09-12T13:28:36.693Z,1660
2017-09-12T13:29:38.123Z,3196
2017-09-12T13:30:39.555Z,23776
2017-09-12T13:31:41.537Z,113888
2017-09-12T13:32:42.964Z,114880
2017-09-12T13:33:44.392Z,109216
2017-09-12T13:34:45.818Z,110144
2017-09-12T13:35:47.256Z,105568
2017-09-12T13:36:48.693Z,112288
2017-09-12T13:37:50.143Z,118880
2017-09-12T13:38:51.575Z,120608
2017-09-12T13:39:53.010Z,115072
2017-09-12T13:40:54.443Z,102560
2017-09-12T13:41:55.867Z,82752
2017-09-12T13:42:57.335Z,61504
2017-09-12T13:43:58.837Z,47008
2017-09-12T13:45:00.271Z,39840
2017-09-12T13:46:02.527Z,7960
2017-09-12T13:47:03.974Z,31392
2017-09-12T13:48:05.423Z,13644
2017-09-12T13:49:06.857Z,3476
2017-09-12T13:50:08.293Z,1876
2017-09-12T13:51:09.721Z,1728
2017-09-12T13:52:11.151Z,3776
2017-09-12T13:53:12.583Z,4396
2017-09-12T13:54:14.014Z,4344
2017-09-12T13:55:15.449Z,4520
2017-09-12T13:56:16.892Z,4436
2017-09-12T13:57:18.327Z,5420
2017-09-12T13:58:19.750Z,1140
2017-09-12T13:59:21.179Z,5276
2017-09-12T14:00:22.617Z,3412
2017-09-12T14:01:24.055Z,3312
2017-09-12T14:02:25.488Z,2580
2017-09-12T14:03:26.920Z,2376
2017-09-12T14:04:29.032Z,1924
2017-09-12T14:05:30.471Z,1616
2017-09-12T14:06:31.904Z,1508
2017-09-12T14:07:33.352Z,1388
2017-09-12T14:08:34.794Z,1368
2017-09-12T14:09:36.231Z,1832
2017-09-12T14:10:37.704Z,1376
2017-09-12T14:11:39.129Z,1420
2017-09-12T14:12:40.551Z,1316
2017-09-12T14:13:42.538Z,1268
2017-09-12T14:14:43.965Z,1244